Time;durP1;ratioP1;P1;durP2;ratioP2;P2;SDS_P1;SDS_P2;PMS_P1;PMS_P2;Temp;Humidity;BMP_temperature;BMP_pressure;BME280_temperature;BME280_humidity;BME280_pressure;Samples;Min_cycle;Max_cycle;Signal;HPM_P1;HPM_P2
2022/08/16 00:01:57;;;;;;;12.52;8.13;;;20.00;99.90;;;;;;5071445;28;20818;-83
2022/08/16 00:04:23;;;;;;;13.57;8.77;;;19.90;99.90;;;;;;5071605;28;20106;-85
2022/08/16 00:06:49;;;;;;;14.38;7.65;;;19.90;99.90;;;;;;5072076;28;20147;-83
2022/08/16 00:09:14;;;;;;;11.75;8.07;;;19.90;99.90;;;;;;5071673;28;20027;-84
2022/08/16 00:11:42;;;;;;;14.90;8.50;;;19.80;99.90;;;;;;5071237;28;20024;-82
2022/08/16 00:14:10;;;;;;;;;;;19.80;99.90;;;;;;5071707;28;20036;-84
2022/08/16 00:16:36;;;;;;;11.32;7.72;;;19.60;99.90;;;;;;5070218;28;19914;-87
2022/08/16 00:19:03;;;;;;;12.98;8.27;;;19.70;99.90;;;;;;5071284;28;20025;-86
2022/08/16 00:21:29;;;;;;;15.55;8.27;;;19.70;99.90;;;;;;5053631;28;20020;-83
2022/08/16 00:23:56;;;;;;;11.40;8.23;;;19.60;99.90;;;;;;5053923;28;20032;-86
2022/08/16 00:26:22;;;;;;;12.43;8.07;;;19.60;99.90;;;;;;5071334;28;20476;-83
2022/08/16 00:28:48;;;;;;;12.30;8.10;;;19.60;99.90;;;;;;5071447;28;20060;-85
2022/08/16 00:31:14;;;;;;;12.23;7.85;;;19.50;99.90;;;;;;5071269;28;20519;-86
2022/08/16 00:33:40;;;;;;;12.95;8.90;;;19.60;99.90;;;;;;5071001;28;20058;-84
2022/08/16 00:36:06;;;;;;;11.75;7.88;;;19.50;99.90;;;;;;5070897;28;20368;-82
2022/08/16 00:38:31;;;;;;;13.95;8.77;;;19.50;99.90;;;;;;5053142;28;20472;-85
2022/08/16 00:40:59;;;;;;;16.67;8.82;;;19.50;99.90;;;;;;5071583;28;20034;-84
2022/08/16 00:43:26;;;;;;;;;;;19.50;99.90;;;;;;5071709;28;20459;-83
2022/08/16 00:45:58;;;;;;;12.98;8.20;;;19.40;99.90;;;;;;5070539;28;19908;-84
2022/08/16 00:48:24;;;;;;;14.57;8.20;;;19.40;99.90;;;;;;5053522;28;20438;-85
2022/08/16 00:50:49;;;;;;;13.80;8.75;;;19.30;99.90;;;;;;5071110;28;20021;-83
2022/08/16 00:53:17;;;;;;;13.15;9.48;;;19.30;99.90;;;;;;5070934;28;20020;-83
2022/08/16 00:55:47;;;;;;;13.38;9.43;;;19.00;99.90;;;;;;5052933;28;20108;-83
2022/08/16 00:58:16;;;;;;;14.23;9.68;;;19.00;99.90;;;;;;5052905;28;20040;-84
2022/08/16 01:00:43;;;;;;;14.68;10.32;;;18.90;99.90;;;;;;5071286;28;20103;-85
2022/08/16 01:03:12;;;;;;;20.27;9.75;;;18.90;99.90;;;;;;5070820;28;20027;-84
2022/08/16 01:05:38;;;;;;;12.70;9.30;;;18.90;99.90;;;;;;5053195;28;20071;-86
2022/08/16 01:08:07;;;;;;;12.13;8.95;;;19.00;99.90;;;;;;5071186;28;20047;-85
2022/08/16 01:10:34;;;;;;;15.77;10.07;;;19.00;99.90;;;;;;5071395;28;20036;-86
2022/08/16 01:13:21;;;;;;;14.05;9.88;;;18.90;99.90;;;;;;5052927;28;20021;-84
2022/08/16 01:15:58;;;;;;;14.38;10.27;;;18.90;99.90;;;;;;5070639;28;20048;-84
2022/08/16 01:18:29;;;;;;;13.60;9.38;;;18.90;99.90;;;;;;5072604;28;20112;-84
2022/08/16 01:21:03;;;;;;;14.25;9.52;;;18.90;99.90;;;;;;5052931;28;20024;-85
2022/08/16 01:23:47;;;;;;;12.13;9.15;;;18.90;99.90;;;;;;5052565;28;20352;-84
2022/08/16 01:26:14;;;;;;;14.23;9.60;;;19.00;99.90;;;;;;5070781;28;20024;-83
2022/08/16 01:28:42;;;;;;;13.40;9.77;;;18.90;99.90;;;;;;5069310;28;20040;-84
2022/08/16 01:31:09;;;;;;;16.17;9.40;;;18.60;99.90;;;;;;5052486;28;20099;-84
2022/08/16 01:33:34;;;;;;;;;;;18.70;99.90;;;;;;5070217;28;20033;-84
2022/08/16 01:36:07;;;;;;;12.63;8.70;;;18.90;99.90;;;;;;5067653;28;19962;-83
2022/08/16 01:38:36;;;;;;;13.30;9.60;;;18.90;99.90;;;;;;5052027;28;20454;-85
2022/08/16 01:41:18;;;;;;;15.13;9.63;;;18.80;99.90;;;;;;5070135;28;20028;-85
2022/08/16 01:43:45;;;;;;;13.00;9.40;;;18.80;99.90;;;;;;5069721;28;20028;-85
2022/08/16 01:46:42;;;;;;;17.08;10.00;;;18.70;99.90;;;;;;5069689;28;20032;-82
2022/08/16 01:49:17;;;;;;;14.77;9.45;;;18.60;99.90;;;;;;5068110;28;20131;-85
2022/08/16 01:51:46;;;;;;;12.18;8.80;;;18.70;99.90;;;;;;5070005;28;20086;-86
2022/08/16 01:54:12;;;;;;;13.75;10.30;;;18.70;99.90;;;;;;5069443;28;20039;-85
2022/08/16 01:56:38;;;;;;;13.30;9.35;;;18.70;99.90;;;;;;5067782;28;20082;-82
2022/08/16 01:59:08;;;;;;;14.00;9.53;;;18.70;99.90;;;;;;5069697;28;20082;-87
2022/08/16 02:01:34;;;;;;;13.73;9.73;;;18.70;99.90;;;;;;5068518;28;20020;-85
2022/08/16 02:04:00;;;;;;;13.35;9.25;;;18.60;99.90;;;;;;5069494;28;20563;-84
2022/08/16 02:06:26;;;;;;;15.70;9.65;;;18.60;99.90;;;;;;5070119;28;20025;-85
2022/08/16 02:08:53;;;;;;;14.03;9.07;;;18.60;99.90;;;;;;5078068;22;20052;-55
2022/08/16 02:11:21;;;;;;;16.50;9.18;;;18.50;99.90;;;;;;5069703;28;20028;-55
2022/08/16 02:13:47;;;;;;;15.43;9.02;;;18.50;99.90;;;;;;5069549;28;20036;-55
2022/08/16 02:16:13;;;;;;;14.25;8.75;;;18.40;99.90;;;;;;5069724;28;20032;-57
2022/08/16 02:18:39;;;;;;;12.73;7.88;;;18.20;99.90;;;;;;5069864;28;20029;-56
2022/08/16 02:21:06;;;;;;;13.35;9.40;;;18.10;99.90;;;;;;5051523;28;20028;-55
2022/08/16 02:23:34;;;;;;;13.95;9.35;;;18.00;99.90;;;;;;5069510;28;20021;-55
2022/08/16 02:26:00;;;;;;;24.15;10.90;;;17.90;99.90;;;;;;5051795;28;20599;-55
2022/08/16 02:28:26;;;;;;;16.20;9.95;;;17.90;99.90;;;;;;5069498;28;20067;-56
2022/08/16 02:30:54;;;;;;;16.48;10.27;;;18.00;99.90;;;;;;5069528;28;20805;-56
2022/08/16 02:33:22;;;;;;;13.57;9.85;;;18.20;99.90;;;;;;5069636;28;20422;-56
2022/08/16 02:35:47;;;;;;;14.88;10.57;;;18.30;99.90;;;;;;5069430;28;20086;-55
2022/08/16 02:38:16;;;;;;;12.73;9.60;;;18.20;99.90;;;;;;5069239;28;20028;-55
2022/08/16 02:40:42;;;;;;;13.77;10.20;;;18.20;99.90;;;;;;5051781;28;20063;-55
2022/08/16 02:43:08;;;;;;;15.50;9.65;;;18.30;99.90;;;;;;5069530;28;20064;-55
2022/08/16 02:45:33;;;;;;;13.88;9.15;;;18.30;99.90;;;;;;5069328;28;20027;-55
2022/08/16 02:47:59;;;;;;;16.08;9.40;;;18.20;99.90;;;;;;5034594;28;20028;-55
2022/08/16 02:50:26;;;;;;;15.80;10.23;;;18.20;99.90;;;;;;5069558;28;20032;-55
2022/08/16 02:52:51;;;;;;;15.65;10.23;;;18.20;99.90;;;;;;5069287;28;20108;-55
2022/08/16 02:55:18;;;;;;;17.67;10.38;;;18.10;99.90;;;;;;5069152;28;20123;-55
2022/08/16 02:57:44;;;;;;;16.08;10.90;;;18.10;99.90;;;;;;5051089;28;20020;-55
2022/08/16 03:00:12;;;;;;;15.10;9.32;;;18.10;99.90;;;;;;5069086;28;20036;-56
2022/08/16 03:02:40;;;;;;;16.98;9.98;;;18.00;99.90;;;;;;5069344;28;20029;-56
2022/08/16 03:05:08;;;;;;;23.05;10.80;;;18.10;99.90;;;;;;5069045;28;20044;-55
2022/08/16 03:07:34;;;;;;;13.63;8.80;;;18.10;99.90;;;;;;5068827;28;20139;-55
2022/08/16 03:10:00;;;;;;;19.02;9.07;;;18.00;99.90;;;;;;5071311;28;20036;-56
2022/08/16 03:12:26;;;;;;;15.90;9.70;;;18.00;99.90;;;;;;5072783;28;20020;-56
2022/08/16 03:14:52;;;;;;;16.52;9.95;;;18.00;99.90;;;;;;5072759;28;20036;-56
2022/08/16 03:17:17;;;;;;;14.55;10.07;;;18.00;99.90;;;;;;5072710;28;20494;-56
2022/08/16 03:19:43;;;;;;;16.50;10.25;;;18.10;99.90;;;;;;5072396;28;20365;-56
2022/08/16 03:22:11;;;;;;;15.27;10.02;;;17.80;99.90;;;;;;5072441;28;20039;-55
2022/08/16 03:24:37;;;;;;;13.43;10.43;;;17.70;99.90;;;;;;5072367;28;20032;-56
2022/08/16 03:27:03;;;;;;;12.80;10.02;;;17.80;99.90;;;;;;5072467;28;20031;-57
2022/08/16 03:29:31;;;;;;;16.05;10.52;;;17.70;99.90;;;;;;5072405;28;20032;-56
2022/08/16 03:32:01;;;;;;;11.85;8.98;;;17.90;99.90;;;;;;5054698;28;20090;-56
2022/08/16 03:34:27;;;;;;;17.70;10.43;;;17.90;99.90;;;;;;5072085;28;20037;-55
2022/08/16 03:36:54;;;;;;;13.13;9.50;;;17.90;99.90;;;;;;5072576;28;20052;-56
2022/08/16 03:39:20;;;;;;;17.37;10.47;;;17.90;99.90;;;;;;5072223;28;20074;-56
2022/08/16 03:41:45;;;;;;;15.23;10.88;;;17.90;99.90;;;;;;5053994;28;20025;-56
2022/08/16 03:44:12;;;;;;;18.67;11.65;;;17.70;99.90;;;;;;5072133;28;20024;-56
2022/08/16 03:46:38;;;;;;;18.15;10.85;;;17.60;99.90;;;;;;5072251;28;20103;-56
2022/08/16 03:49:04;;;;;;;16.85;10.85;;;17.50;99.90;;;;;;5072176;28;20052;-56
2022/08/16 03:51:30;;;;;;;16.60;10.65;;;17.60;99.90;;;;;;5072293;28;20032;-56
2022/08/16 03:53:56;;;;;;;14.18;10.30;;;17.60;99.90;;;;;;5072148;28;20040;-56
2022/08/16 03:56:22;;;;;;;16.33;10.60;;;17.60;99.90;;;;;;5072207;28;20063;-55
2022/08/16 03:58:48;;;;;;;14.63;10.57;;;17.60;99.90;;;;;;5071980;28;20059;-55
2022/08/16 04:01:14;;;;;;;16.50;10.48;;;17.60;99.90;;;;;;5071860;28;20171;-55
2022/08/16 04:03:40;;;;;;;18.80;11.65;;;17.60;99.90;;;;;;5071724;28;20673;-56
2022/08/16 04:06:06;;;;;;;15.27;10.55;;;17.60;99.90;;;;;;5072077;28;20033;-56
2022/08/16 04:08:32;;;;;;;16.17;10.10;;;17.60;99.90;;;;;;5071565;28;20059;-56
2022/08/16 04:10:58;;;;;;;18.70;10.38;;;17.70;99.90;;;;;;5071798;28;20032;-57
2022/08/16 04:13:24;;;;;;;14.82;9.95;;;17.60;99.90;;;;;;5071465;28;20028;-56
2022/08/16 04:15:51;;;;;;;22.95;10.65;;;17.70;99.90;;;;;;5071654;28;20028;-56
2022/08/16 04:18:17;;;;;;;16.23;10.82;;;17.70;99.90;;;;;;5071421;28;20055;-56
2022/08/16 04:20:43;;;;;;;15.82;10.65;;;17.50;99.90;;;;;;5071277;28;20032;-56
2022/08/16 04:23:09;;;;;;;16.38;10.57;;;17.40;99.90;;;;;;5071757;28;20082;-55
2022/08/16 04:25:35;;;;;;;15.75;10.85;;;17.60;99.90;;;;;;5071512;28;20020;-56
2022/08/16 04:28:01;;;;;;;17.27;10.02;;;17.70;99.90;;;;;;5071207;28;20032;-55
2022/08/16 04:30:27;;;;;;;17.05;10.40;;;17.80;99.90;;;;;;5071446;28;20051;-56
2022/08/16 04:32:53;;;;;;;15.27;9.75;;;17.80;99.90;;;;;;5071025;28;20415;-56
2022/08/16 04:35:22;;;;;;;16.80;9.50;;;17.70;99.90;;;;;;5071043;28;20491;-55
2022/08/16 04:37:49;;;;;;;16.10;10.00;;;17.80;99.90;;;;;;5071119;28;20075;-55
2022/08/16 04:40:15;;;;;;;16.45;10.55;;;17.60;99.90;;;;;;5071299;28;20095;-55
2022/08/16 04:42:42;;;;;;;15.57;11.23;;;17.70;99.90;;;;;;5071168;28;20059;-55
2022/08/16 04:45:10;;;;;;;18.25;11.30;;;17.80;99.90;;;;;;5070973;28;20050;-55
2022/08/16 04:47:36;;;;;;;20.40;12.20;;;17.80;99.90;;;;;;5071089;28;20067;-55
2022/08/16 04:50:08;;;;;;;24.80;12.52;;;17.90;99.90;;;;;;5071033;28;20017;-55
2022/08/16 04:52:34;;;;;;;16.30;9.95;;;18.00;99.90;;;;;;5070817;28;20029;-56
2022/08/16 04:55:00;;;;;;;15.05;10.40;;;18.00;99.90;;;;;;5070830;28;20549;-56
2022/08/16 04:57:26;;;;;;;21.52;10.77;;;17.90;99.90;;;;;;5070658;28;20029;-56
2022/08/16 04:59:51;;;;;;;16.08;10.77;;;17.80;99.90;;;;;;5070667;28;20067;-56
2022/08/16 05:02:17;;;;;;;19.75;11.73;;;17.90;99.90;;;;;;5070393;28;20029;-55
2022/08/16 05:04:43;;;;;;;14.85;11.07;;;18.00;99.90;;;;;;5070253;28;20056;-56
2022/08/16 05:07:08;;;;;;;19.98;11.75;;;18.00;99.90;;;;;;5070435;28;20044;-55
2022/08/16 05:09:34;;;;;;;21.65;12.98;;;18.10;99.90;;;;;;5070479;28;20479;-56
2022/08/16 05:12:00;;;;;;;19.05;13.40;;;18.20;99.90;;;;;;5070706;28;20048;-55
2022/08/16 05:14:26;;;;;;;21.30;13.82;;;18.20;99.90;;;;;;5070207;28;20778;-55
2022/08/16 05:16:52;;;;;;;24.13;15.68;;;18.30;99.90;;;;;;5070533;28;20028;-56
2022/08/16 05:19:17;;;;;;;22.88;14.90;;;18.40;99.90;;;;;;5070403;28;20028;-55
2022/08/16 05:21:43;;;;;;;23.48;15.95;;;18.40;99.90;;;;;;5070193;28;20028;-55
2022/08/16 05:24:09;;;;;;;24.63;16.88;;;18.50;99.90;;;;;;5070161;28;20029;-55
2022/08/16 05:26:36;;;;;;;23.52;15.63;;;18.50;99.90;;;;;;5070329;28;20021;-55
2022/08/16 05:29:03;;;;;;;25.95;16.58;;;18.60;99.90;;;;;;5070387;28;20115;-55
2022/08/16 05:31:29;;;;;;;21.15;14.73;;;18.60;99.90;;;;;;5069329;28;20445;-56
2022/08/16 05:33:55;;;;;;;22.92;15.00;;;18.60;99.90;;;;;;5070019;28;20029;-56
2022/08/16 05:36:21;;;;;;;22.83;16.30;;;18.70;99.90;;;;;;5070151;28;20024;-56
2022/08/16 05:38:47;;;;;;;25.33;16.17;;;18.70;99.90;;;;;;5070176;28;20115;-55
2022/08/16 05:41:14;;;;;;;29.25;18.73;;;18.80;99.90;;;;;;5070014;28;20031;-56
2022/08/16 05:43:40;;;;;;;25.15;18.70;;;18.90;99.90;;;;;;5051704;28;20024;-56
2022/08/16 05:46:06;;;;;;;22.63;17.23;;;18.90;99.90;;;;;;5051835;28;20079;-56
2022/08/16 05:48:31;;;;;;;24.13;16.10;;;19.00;99.90;;;;;;5069980;28;20056;-56
2022/08/16 05:50:57;;;;;;;22.65;16.05;;;19.10;99.90;;;;;;5069966;28;20066;-57
2022/08/16 05:53:23;;;;;;;21.50;15.38;;;19.20;99.90;;;;;;5051791;28;20101;-55
2022/08/16 05:55:50;;;;;;;22.98;16.00;;;19.20;99.90;;;;;;5069976;28;20104;-56
2022/08/16 05:58:16;;;;;;;26.85;15.38;;;19.30;99.90;;;;;;5069534;28;20059;-55
2022/08/16 06:00:42;;;;;;;25.00;15.77;;;19.40;99.90;;;;;;5069815;28;20028;-55
2022/08/16 06:03:08;;;;;;;22.38;15.20;;;19.50;99.90;;;;;;5069714;28;20090;-54
2022/08/16 06:05:33;;;;;;;26.67;15.68;;;19.60;99.90;;;;;;5069839;28;20020;-55
2022/08/16 06:07:59;;;;;;;24.02;14.80;;;19.70;99.90;;;;;;5069699;28;20048;-55
2022/08/16 06:10:25;;;;;;;20.83;15.15;;;19.70;99.90;;;;;;5069662;28;20025;-55
2022/08/16 06:12:51;;;;;;;24.05;15.63;;;19.80;99.90;;;;;;5069636;28;20059;-55
2022/08/16 06:15:19;;;;;;;21.65;15.30;;;19.80;99.90;;;;;;5069734;28;20068;-55
2022/08/16 06:17:46;;;;;;;23.50;16.17;;;19.90;99.90;;;;;;5069503;28;20028;-55
2022/08/16 06:20:18;;;;;;;24.92;16.05;;;19.90;99.90;;;;;;5069903;28;20055;-55
2022/08/16 06:22:45;;;;;;;26.17;16.48;;;20.00;99.90;;;;;;5069348;28;20036;-55
2022/08/16 06:25:13;;;;;;;27.83;15.67;;;20.10;99.90;;;;;;5069541;28;20055;-55
2022/08/16 06:27:39;;;;;;;20.95;16.20;;;20.10;99.90;;;;;;5069535;28;20029;-54
2022/08/16 06:30:10;;;;;;;25.15;16.58;;;20.20;99.90;;;;;;5069519;28;20802;-54
2022/08/16 06:32:36;;;;;;;26.60;17.02;;;20.20;99.90;;;;;;5069492;28;20115;-54
2022/08/16 06:35:02;;;;;;;23.77;15.60;;;20.20;99.90;;;;;;5069502;28;20119;-55
2022/08/16 06:37:28;;;;;;;23.13;15.87;;;20.30;99.90;;;;;;5069549;28;20108;-55
2022/08/16 06:39:54;;;;;;;26.95;15.20;;;20.40;99.90;;;;;;5069293;28;20059;-55
2022/08/16 06:42:19;;;;;;;25.60;14.65;;;20.40;99.90;;;;;;5069516;28;20025;-54
2022/08/16 06:44:45;;;;;;;21.15;14.45;;;20.50;99.90;;;;;;5073308;28;20435;-55
2022/08/16 06:47:12;;;;;;;18.88;14.10;;;20.50;99.90;;;;;;5073363;28;20028;-55
2022/08/16 06:49:38;;;;;;;20.57;14.30;;;20.60;99.90;;;;;;5073178;28;20036;-55
2022/08/16 06:52:04;;;;;;;20.23;14.30;;;20.70;99.90;;;;;;5072857;28;20308;-55
2022/08/16 06:54:29;;;;;;;19.88;14.07;;;20.70;99.90;;;;;;5056920;28;20037;-55
2022/08/16 06:56:55;;;;;;;18.10;13.20;;;20.80;99.90;;;;;;5052780;28;20032;-55
2022/08/16 06:59:21;;;;;;;20.60;13.52;;;20.90;99.90;;;;;;5034553;28;20090;-56
2022/08/16 07:01:48;;;;;;;26.73;14.95;;;21.00;99.90;;;;;;5052319;28;20520;-55
2022/08/16 07:04:13;;;;;;;20.63;13.93;;;21.10;99.90;;;;;;5039773;28;20026;-56
2022/08/16 07:06:41;;;;;;;20.65;12.77;;;21.20;99.90;;;;;;5032678;28;20033;-54
2022/08/16 07:09:06;;;;;;;;;;;21.20;99.90;;;;;;5036591;28;20045;-55
2022/08/16 07:11:32;;;;;;;22.00;14.88;;;21.30;99.90;;;;;;5041889;28;19916;-55
2022/08/16 07:13:58;;;;;;;19.02;13.65;;;21.30;99.90;;;;;;5035313;28;20045;-55
2022/08/16 07:16:24;;;;;;;18.67;13.65;;;21.50;99.90;;;;;;5032546;28;20393;-55
2022/08/16 07:18:51;;;;;;;18.80;11.80;;;21.50;99.90;;;;;;5032484;28;20033;-55
2022/08/16 07:21:17;;;;;;;26.20;12.57;;;21.60;99.90;;;;;;5033095;28;20730;-54
2022/08/16 07:23:45;;;;;;;21.75;11.93;;;21.70;99.90;;;;;;5058635;28;20028;-54
2022/08/16 07:26:15;;;;;;;;;;;21.80;99.90;;;;;;5056654;28;20581;-54
2022/08/16 07:28:41;;;;;;;17.73;12.40;;;21.80;99.90;;;;;;5052555;28;19932;-54
2022/08/16 07:31:07;;;;;;;15.50;11.35;;;21.90;99.90;;;;;;5052403;28;20021;-56
2022/08/16 07:33:34;;;;;;;17.27;12.38;;;22.10;99.90;;;;;;5052058;28;20488;-55
2022/08/16 07:36:00;;;;;;;17.58;12.75;;;22.10;99.90;;;;;;5051952;28;20572;-55
2022/08/16 07:38:26;;;;;;;17.10;12.35;;;22.30;99.90;;;;;;5052376;28;20112;-55
2022/08/16 07:40:53;;;;;;;34.83;12.37;;;22.40;99.90;;;;;;5051173;28;20550;-55
2022/08/16 07:43:19;;;;;;;;;;;22.50;99.90;;;;;;5051852;28;20067;-56
2022/08/16 07:45:45;;;;;;;27.50;17.80;;;22.60;99.90;;;;;;5051704;28;20357;-56
2022/08/16 07:48:11;;;;;;;18.77;11.23;;;22.60;99.90;;;;;;5051654;28;20116;-54
2022/08/16 07:50:37;;;;;;;16.00;10.63;;;22.70;99.90;;;;;;5051248;28;20100;-55
2022/08/16 07:53:02;;;;;;;17.38;11.25;;;22.90;99.90;;;;;;5051932;28;20116;-55
2022/08/16 07:55:28;;;;;;;30.55;26.33;;;23.10;99.90;;;;;;5050090;28;20067;-55
2022/08/16 07:57:54;;;;;;;90.97;64.32;;;23.10;99.90;;;;;;5051643;28;20029;-55
2022/08/16 08:00:20;;;;;;;20.83;13.55;;;23.20;99.90;;;;;;5051882;28;20081;-54
2022/08/16 08:02:46;;;;;;;43.78;35.65;;;23.20;99.90;;;;;;5051579;28;20501;-55
2022/08/16 08:05:13;;;;;;;19.37;13.13;;;23.20;99.90;;;;;;5051497;28;20150;-55
2022/08/16 08:07:38;;;;;;;22.40;12.67;;;23.40;99.90;;;;;;5051359;28;20048;-55
2022/08/16 08:10:05;;;;;;;21.52;12.10;;;23.40;99.90;;;;;;5033470;28;20715;-55
2022/08/16 08:12:31;;;;;;;31.00;11.40;;;23.50;99.90;;;;;;5051170;28;20108;-55
2022/08/16 08:14:57;;;;;;;18.13;10.23;;;23.50;99.90;;;;;;5051154;28;20040;-56
2022/08/16 08:17:23;;;;;;;17.35;10.75;;;23.60;99.90;;;;;;5047355;28;20090;-55
2022/08/16 08:19:49;;;;;;;15.00;9.35;;;23.70;99.90;;;;;;5050055;28;20033;-56
2022/08/16 08:22:15;;;;;;;19.48;9.57;;;23.80;99.90;;;;;;5050709;28;20032;-55
2022/08/16 08:24:41;;;;;;;20.67;10.57;;;23.90;99.90;;;;;;5042194;28;20546;-55
2022/08/16 08:27:08;;;;;;;15.25;8.95;;;24.00;99.90;;;;;;5040167;28;20264;-56
2022/08/16 08:29:35;;;;;;;;;;;24.20;99.90;;;;;;5047914;28;20028;-55
2022/08/16 08:32:01;;;;;;;12.93;8.55;;;24.40;99.90;;;;;;5051044;28;19959;-55
2022/08/16 08:34:27;;;;;;;12.02;8.73;;;24.40;99.90;;;;;;5051000;28;20082;-55
2022/08/16 08:36:53;;;;;;;14.90;9.48;;;24.50;99.90;;;;;;5050636;28;20108;-55
2022/08/16 08:39:19;;;;;;;11.87;8.23;;;24.50;99.90;;;;;;5050727;28;20025;-55
2022/08/16 08:41:46;;;;;;;24.35;9.57;;;24.50;99.90;;;;;;5049906;28;20277;-55
2022/08/16 08:44:13;;;;;;;15.85;8.43;;;24.60;99.90;;;;;;5050049;28;20055;-55
2022/08/16 08:46:39;;;;;;;11.90;8.75;;;24.80;99.90;;;;;;5050462;28;20064;-55
2022/08/16 08:49:07;;;;;;;11.93;8.13;;;24.80;99.90;;;;;;5050728;28;20031;-55
2022/08/16 08:51:37;;;;;;;11.50;8.18;;;24.80;99.90;;;;;;5049989;28;20036;-54
2022/08/16 08:54:07;;;;;;;13.02;8.55;;;24.90;99.90;;;;;;5033131;28;20069;-54
2022/08/16 08:56:36;;;;;;;14.38;8.45;;;25.20;99.90;;;;;;5050718;28;20119;-54
2022/08/16 08:59:04;;;;;;;12.02;7.53;;;25.30;99.90;;;;;;5050473;28;20025;-57
2022/08/16 09:01:32;;;;;;;10.77;7.82;;;25.50;99.90;;;;;;5049110;28;20025;-57
2022/08/16 09:03:59;;;;;;;12.07;7.13;;;25.50;99.90;;;;;;5049352;28;20025;-57
2022/08/16 09:06:25;;;;;;;11.40;7.90;;;25.60;99.90;;;;;;5050239;28;20518;-57
2022/08/16 09:08:50;;;;;;;9.40;7.85;;;25.70;99.90;;;;;;5049724;28;20055;-57
2022/08/16 09:11:17;;;;;;;9.95;7.18;;;25.90;99.90;;;;;;5038849;28;20026;-56
2022/08/16 09:13:43;;;;;;;;;;;25.90;99.90;;;;;;5050066;28;20366;-57
2022/08/16 09:16:09;;;;;;;12.50;8.30;;;26.00;99.90;;;;;;5050101;28;19915;-57
2022/08/16 09:18:35;;;;;;;11.20;8.10;;;26.30;99.90;;;;;;5049965;28;20492;-57
2022/08/16 09:21:01;;;;;;;17.75;9.13;;;26.30;99.90;;;;;;5049950;28;20100;-58
2022/08/16 09:23:30;;;;;;;18.63;8.88;;;26.40;99.90;;;;;;5049947;28;20040;-56
2022/08/16 09:25:56;;;;;;;23.83;9.85;;;26.50;99.90;;;;;;5050091;28;20500;-57
2022/08/16 09:28:22;;;;;;;19.67;10.27;;;26.50;99.90;;;;;;5074447;22;20079;-79
2022/08/16 09:30:48;;;;;;;17.77;9.55;;;26.80;99.90;;;;;;5076951;28;20036;-79
2022/08/16 09:33:18;;;;;;;19.83;10.57;;;27.10;99.90;;;;;;5072065;28;20085;-77
2022/08/16 09:35:45;;;;;;;19.67;10.35;;;27.00;99.90;;;;;;5071755;28;20085;-78
2022/08/16 09:38:12;;;;;;;15.60;8.85;;;27.20;99.90;;;;;;5069611;28;20024;-78
2022/08/16 09:40:43;;;;;;;15.13;8.25;;;27.20;99.90;;;;;;5075674;28;20646;-80
2022/08/16 09:43:11;;;;;;;13.63;8.02;;;27.40;99.90;;;;;;5070708;28;20048;-79
2022/08/16 09:45:40;;;;;;;14.40;9.15;;;27.40;99.90;;;;;;5054527;28;20475;-79
2022/08/16 09:48:10;;;;;;;13.27;7.72;;;27.50;99.90;;;;;;5073132;28;20522;-79
2022/08/16 09:50:38;;;;;;;12.07;8.40;;;27.60;99.90;;;;;;5051653;28;20031;-79
2022/08/16 09:53:08;;;;;;;12.60;7.72;;;27.80;99.90;;;;;;5070652;28;20447;-79
2022/08/16 09:55:34;;;;;;;10.88;7.55;;;27.80;97.10;;;;;;5052670;28;20063;-79
2022/08/16 09:58:01;;;;;;;11.15;8.02;;;28.10;95.30;;;;;;5069199;28;20021;-82
2022/08/16 10:00:27;;;;;;;93.65;74.30;;;28.10;99.80;;;;;;5050812;28;20045;-82
2022/08/16 10:02:53;;;;;;;11.73;8.02;;;28.20;96.60;;;;;;5050797;28;20075;-79
2022/08/16 10:05:20;;;;;;;15.60;7.97;;;28.10;93.00;;;;;;5067440;28;20064;-81
2022/08/16 10:07:51;;;;;;;13.38;7.95;;;28.20;95.50;;;;;;5066283;28;20111;-80
2022/08/16 10:10:21;;;;;;;10.00;7.35;;;28.30;95.70;;;;;;5068355;28;20545;-80
2022/08/16 10:15:33;;;;;;;11.07;7.53;;;28.60;96.50;;;;;;5066342;28;20131;-80
2022/08/16 10:18:02;;;;;;;33.63;8.68;;;28.80;92.10;;;;;;5069206;28;20016;-80
2022/08/16 10:20:34;;;;;;;21.83;8.98;;;28.80;93.40;;;;;;5069718;28;20008;-79
2022/08/16 10:23:02;;;;;;;13.80;8.88;;;28.80;93.60;;;;;;5072556;28;20093;-81
2022/08/16 10:25:28;;;;;;;20.88;10.35;;;29.10;95.00;;;;;;5072427;28;20021;-79
2022/08/16 10:27:55;;;;;;;13.63;8.90;;;29.00;93.50;;;;;;5071071;28;20091;-81
2022/08/16 10:30:21;;;;;;;12.57;8.40;;;29.00;92.10;;;;;;5073223;28;20017;-80
2022/08/16 10:32:48;;;;;;;13.63;8.75;;;28.70;90.70;;;;;;5054540;28;20033;-79
2022/08/16 10:35:15;;;;;;;9.63;7.72;;;28.60;93.60;;;;;;5070085;28;20139;-81
2022/08/16 10:37:42;;;;;;;10.23;7.90;;;28.90;98.30;;;;;;5072012;28;20079;-81
2022/08/16 10:40:11;;;;;;;13.57;8.40;;;29.10;91.90;;;;;;5072091;28;20009;-81
2022/08/16 10:42:38;;;;;;;12.85;8.43;;;29.10;90.00;;;;;;5069217;28;20024;-79
2022/08/16 10:45:04;;;;;;;8.15;6.70;;;29.10;91.40;;;;;;5054815;28;20032;-79
2022/08/16 10:47:31;;;;;;;8.55;6.43;;;29.30;92.80;;;;;;5071283;28;20089;-81
2022/08/16 10:49:58;;;;;;;12.77;8.35;;;29.50;93.10;;;;;;5053136;28;20039;-80
2022/08/16 10:52:24;;;;;;;;;;;29.60;94.70;;;;;;5070958;28;20028;-81
2022/08/16 10:54:50;;;;;;;13.15;8.30;;;30.00;88.20;;;;;;5071172;28;20027;-80
2022/08/16 10:57:17;;;;;;;12.77;7.20;;;30.10;89.10;;;;;;5053809;28;20061;-82
2022/08/16 10:59:43;;;;;;;12.50;7.97;;;30.20;82.40;;;;;;5055039;28;20020;-81
2022/08/16 11:02:10;;;;;;;14.05;7.30;;;30.20;86.90;;;;;;5070910;28;20043;-79
2022/08/16 11:04:37;;;;;;;12.07;7.50;;;30.30;84.30;;;;;;5072551;28;20021;-79
2022/08/16 11:07:07;;;;;;;13.35;7.93;;;30.40;91.20;;;;;;5061478;28;20024;-79
2022/08/16 11:09:35;;;;;;;11.15;7.75;;;30.40;85.40;;;;;;5061666;28;20060;-79
2022/08/16 11:12:05;;;;;;;11.63;8.45;;;30.60;88.00;;;;;;4653018;22;20090;-80
2022/08/16 11:14:34;;;;;;;12.30;8.15;;;30.70;85.50;;;;;;5120452;22;20043;-81
2022/08/16 11:17:04;;;;;;;11.85;8.00;;;30.80;82.80;;;;;;5115523;27;20035;-82
2022/08/16 11:19:32;;;;;;;9.40;7.15;;;30.90;82.50;;;;;;5128441;27;20042;-79
2022/08/16 11:21:59;;;;;;;13.40;8.50;;;30.20;77.30;;;;;;5130777;27;20028;-81
2022/08/16 11:24:26;;;;;;;8.27;6.82;;;30.20;82.00;;;;;;5105363;27;20019;-82
2022/08/16 11:26:53;;;;;;;11.93;7.07;;;30.70;79.10;;;;;;5126976;27;20030;-80
2022/08/16 11:29:20;;;;;;;10.75;8.07;;;30.90;79.00;;;;;;5101861;28;20070;-81
2022/08/16 11:31:48;;;;;;;11.30;7.35;;;30.90;85.50;;;;;;5126217;27;20019;-81
2022/08/16 11:34:15;;;;;;;10.07;7.10;;;31.20;77.70;;;;;;5099260;27;20028;-79
2022/08/16 11:36:42;;;;;;;9.63;7.32;;;31.30;75.20;;;;;;5103881;27;20028;-81
2022/08/16 11:39:09;;;;;;;11.45;7.22;;;31.20;81.60;;;;;;5103483;27;20019;-81
2022/08/16 11:41:37;;;;;;;11.20;6.97;;;31.20;77.30;;;;;;5104414;27;20031;-80
2022/08/16 11:44:06;;;;;;;9.50;7.15;;;30.90;76.90;;;;;;5122613;27;20110;-82
2022/08/16 11:46:34;;;;;;;7.57;6.38;;;31.30;75.70;;;;;;5102903;27;20019;-81
2022/08/16 11:49:02;;;;;;;9.38;6.50;;;31.30;75.40;;;;;;5121635;27;20055;-81
2022/08/16 11:51:28;;;;;;;7.75;5.90;;;31.20;74.90;;;;;;5101985;27;20083;-81
2022/08/16 11:53:55;;;;;;;11.40;6.53;;;31.40;73.10;;;;;;5097047;27;20034;-80
2022/08/16 11:56:21;;;;;;;7.80;6.03;;;31.70;78.00;;;;;;5124668;27;20029;-83
2022/08/16 11:58:48;;;;;;;9.50;6.53;;;31.80;75.40;;;;;;5105926;27;20110;-82
2022/08/16 12:01:14;;;;;;;8.35;6.55;;;31.90;70.40;;;;;;5119811;27;20083;-79
2022/08/16 12:03:41;;;;;;;8.73;6.15;;;31.60;70.20;;;;;;5138952;27;20023;-81
2022/08/16 12:06:12;;;;;;;11.25;6.18;;;30.80;69.30;;;;;;5126289;27;20086;-80
2022/08/16 12:08:39;;;;;;;12.35;7.18;;;31.20;72.20;;;;;;5104395;27;20115;-80
2022/08/16 12:11:06;;;;;;;11.80;6.93;;;31.30;74.80;;;;;;5107381;27;20136;-83
2022/08/16 12:13:33;;;;;;;9.32;6.53;;;31.70;72.90;;;;;;5106751;27;20031;-81
2022/08/16 12:15:59;;;;;;;11.40;7.13;;;31.70;71.10;;;;;;5125371;27;20050;-82
2022/08/16 12:18:26;;;;;;;10.02;6.28;;;31.80;77.20;;;;;;5123962;27;20485;-80
2022/08/16 12:20:52;;;;;;;11.35;7.03;;;32.10;68.80;;;;;;5103945;27;20026;-81
2022/08/16 12:23:19;;;;;;;9.68;7.10;;;32.20;67.50;;;;;;5123597;27;20026;-80
2022/08/16 12:25:45;;;;;;;;;;;32.20;73.30;;;;;;4913935;22;20049;-81
2022/08/16 12:28:12;;;;;;;13.05;8.02;;;32.10;66.60;;;;;;5068337;28;19946;-81
2022/08/16 12:30:41;;;;;;;10.35;7.60;;;31.80;70.30;;;;;;5059539;28;20056;-82
2022/08/16 12:33:10;;;;;;;13.15;9.00;;;32.20;69.40;;;;;;5059235;28;20093;-81
2022/08/16 12:35:38;;;;;;;12.65;7.93;;;32.10;71.30;;;;;;5060488;28;20555;-83
2022/08/16 12:38:05;;;;;;;13.10;8.40;;;31.80;67.20;;;;;;5059301;28;20013;-82